Orange Village, Ohio
Current Conditions -  °F | °C
As of 11:45 AM on Friday 28 Nov 2014 (Local Time) from KCGF Reporting Station
Overcast Overcast  
Wind Chill: 13°   Ceiling: 2100
Heat Index: 25°   Visibility: 7mi
Dew Point: 19°   Wind: 14mph
Humidity: 80%   Direction: 250°WSW
Pressure: 30.32"   Gusts: NA
Location:  41.4698°N, 81.5121°W
Report Text: KCGF 281645Z 25012KT 7SM BKN021 OVC035 M04/M07 A3032
Loading
Personal Weather Stations






























Interactive Weather Map New forecast layout! Learn more

10-Day Weather Forecast

Advertisements
Track Severe Weather on mobile